createdAt,value
2022-07-29T00:00:19.698Z,67.68
2022-07-29T00:03:07.355Z,67.97
2022-07-29T00:05:54.978Z,68.04
2022-07-29T00:08:42.610Z,68.15
2022-07-29T00:11:30.140Z,68.16
2022-07-29T00:14:17.541Z,68.56
2022-07-29T00:17:04.999Z,69.13
2022-07-29T00:19:52.453Z,70.15
2022-07-29T00:22:40.895Z,70.55
2022-07-29T00:25:28.417Z,70.91
2022-07-29T00:28:15.765Z,71.42
2022-07-29T00:31:03.367Z,71.65
2022-07-29T00:33:51.011Z,71.39
2022-07-29T00:36:38.338Z,71.70
2022-07-29T00:39:26.050Z,71.62
2022-07-29T00:42:15.189Z,71.94
2022-07-29T00:45:02.698Z,72.19
2022-07-29T00:47:50.540Z,71.84
2022-07-29T00:50:38.596Z,71.47
2022-07-29T00:53:27.290Z,71.47
2022-07-29T00:56:14.947Z,71.96
2022-07-29T00:59:02.517Z,72.06
2022-07-29T01:01:50.336Z,72.38
2022-07-29T01:04:37.762Z,72.41
2022-07-29T01:07:26.684Z,72.09
2022-07-29T01:10:15.875Z,72.46
2022-07-29T01:13:04.179Z,72.92
2022-07-29T01:16:01.843Z,73.04
2022-07-29T01:18:51.339Z,73.07
2022-07-29T01:21:57.426Z,73.11
2022-07-29T01:25:08.950Z,73.95
2022-07-29T01:28:33.010Z,73.91
2022-07-29T01:31:25.309Z,73.37
2022-07-29T01:34:16.497Z,73.11
2022-07-29T01:37:13.033Z,72.05
2022-07-29T01:40:01.761Z,71.54
2022-07-29T01:42:52.329Z,71.41
2022-07-29T01:46:01.667Z,71.67
2022-07-29T01:51:34.594Z,74.72
2022-07-29T01:54:24.713Z,75.06
2022-07-29T01:57:15.842Z,75.11
2022-07-29T02:00:02.471Z,75.30
2022-07-29T02:02:50.526Z,75.36
2022-07-29T02:05:38.939Z,75.85
2022-07-29T02:08:27.257Z,75.81
2022-07-29T02:11:14.762Z,75.84
2022-07-29T02:14:02.880Z,75.78
2022-07-29T02:16:52.241Z,75.31
2022-07-29T02:19:40.122Z,75.34
2022-07-29T02:22:30.867Z,75.35
2022-07-29T02:25:18.898Z,75.82
2022-07-29T02:28:07.866Z,76.71
2022-07-29T02:30:56.968Z,77.31
2022-07-29T02:33:44.594Z,77.14
2022-07-29T02:36:32.721Z,77.74
2022-07-29T02:39:20.527Z,77.62
2022-07-29T02:42:09.946Z,77.26
2022-07-29T02:44:58.121Z,76.56
2022-07-29T02:47:48.804Z,75.70
2022-07-29T02:50:39.514Z,74.90
2022-07-29T02:53:28.073Z,74.27
2022-07-29T02:56:17.169Z,73.87
2022-07-29T02:59:06.932Z,73.69
2022-07-29T03:01:55.600Z,73.38
2022-07-29T03:04:44.961Z,73.74
2022-07-29T03:07:32.585Z,73.85
2022-07-29T03:10:20.689Z,73.98
2022-07-29T03:13:09.011Z,73.52
2022-07-29T03:15:56.785Z,73.15
2022-07-29T03:18:44.265Z,72.90
2022-07-29T03:21:31.858Z,72.70
2022-07-29T03:24:33.032Z,72.31
2022-07-29T03:27:20.834Z,72.89
2022-07-29T03:30:09.078Z,72.48
2022-07-29T03:32:57.186Z,72.17
2022-07-29T03:35:45.449Z,71.43
2022-07-29T03:38:34.187Z,70.57
2022-07-29T03:41:22.757Z,70.56
2022-07-29T03:44:10.914Z,70.04
2022-07-29T03:46:59.785Z,69.53
2022-07-29T03:49:48.898Z,68.96
2022-07-29T03:52:36.769Z,68.91
2022-07-29T03:55:24.594Z,68.88
2022-07-29T03:58:13.352Z,68.45
2022-07-29T04:01:01.216Z,68.43
2022-07-29T04:03:48.637Z,68.28
2022-07-29T04:06:48.402Z,68.08
2022-07-29T04:09:36.062Z,67.50
2022-07-29T04:12:23.472Z,66.95
2022-07-29T04:15:11.464Z,66.58
2022-07-29T04:17:59.027Z,66.12
2022-07-29T04:20:46.548Z,65.56
2022-07-29T04:23:36.425Z,65.28
2022-07-29T04:26:25.641Z,65.46
2022-07-29T04:29:13.160Z,65.36
2022-07-29T04:32:00.616Z,65.37
2022-07-29T04:34:47.881Z,65.24
2022-07-29T04:37:35.143Z,64.75
2022-07-29T04:40:22.433Z,64.53
2022-07-29T04:43:10.094Z,63.96
2022-07-29T04:45:59.493Z,63.59
2022-07-29T04:48:48.952Z,63.31
2022-07-29T04:51:36.776Z,62.81
2022-07-29T04:54:25.533Z,62.36
2022-07-29T04:57:13.016Z,62.01
2022-07-29T05:00:00.871Z,61.41
2022-07-29T05:02:48.195Z,61.27
2022-07-29T05:05:35.666Z,61.28
2022-07-29T05:08:22.820Z,61.23
2022-07-29T05:11:11.275Z,60.34
2022-07-29T05:13:59.279Z,59.78
2022-07-29T05:16:46.592Z,59.50
2022-07-29T05:19:34.071Z,58.96
2022-07-29T05:22:24.711Z,58.91
2022-07-29T05:25:12.167Z,58.79
2022-07-29T05:27:59.569Z,58.00
2022-07-29T05:30:47.106Z,57.38
2022-07-29T05:33:37.119Z,57.01
2022-07-29T05:36:23.417Z,56.54
2022-07-29T05:39:11.329Z,56.04
2022-07-29T05:41:58.657Z,55.18
2022-07-29T05:44:45.930Z,54.28
2022-07-29T05:47:33.257Z,53.62
2022-07-29T05:50:20.586Z,53.31
2022-07-29T05:53:20.158Z,52.77
2022-07-29T05:55:59.752Z,52.58
2022-07-29T05:58:47.072Z,51.98
2022-07-29T06:01:34.674Z,51.09
2022-07-29T06:04:23.894Z,51.62
2022-07-29T06:07:12.476Z,51.88
2022-07-29T06:09:59.498Z,51.03
2022-07-29T06:12:46.987Z,50.63
2022-07-29T06:15:34.682Z,49.77
2022-07-29T06:18:24.097Z,49.51
2022-07-29T06:21:12.154Z,49.08
2022-07-29T06:23:59.665Z,48.83
2022-07-29T06:26:48.076Z,48.83
2022-07-29T06:29:35.816Z,48.44
2022-07-29T06:32:27.367Z,48.63
2022-07-29T06:35:39.043Z,47.88
2022-07-29T06:38:01.387Z,47.25
2022-07-29T06:41:06.366Z,47.05
2022-07-29T06:43:54.506Z,46.52
2022-07-29T06:46:42.984Z,46.71
2022-07-29T06:49:31.108Z,46.37
2022-07-29T06:52:18.666Z,45.82
2022-07-29T06:55:06.539Z,45.75
2022-07-29T06:57:54.160Z,45.67
2022-07-29T07:00:41.655Z,45.60
2022-07-29T07:03:28.809Z,45.45
2022-07-29T07:06:15.975Z,45.72
2022-07-29T07:09:03.518Z,44.95
2022-07-29T07:11:51.288Z,45.59
2022-07-29T07:14:38.663Z,45.94
2022-07-29T07:17:26.039Z,46.14
2022-07-29T07:20:13.673Z,45.43
2022-07-29T07:23:01.555Z,45.93
2022-07-29T07:25:49.064Z,46.27
2022-07-29T07:28:36.392Z,45.61
2022-07-29T07:31:23.816Z,45.41
2022-07-29T07:34:11.335Z,45.05
2022-07-29T07:36:58.464Z,44.91
2022-07-29T07:39:45.775Z,44.72
2022-07-29T07:42:33.399Z,44.67
2022-07-29T07:45:20.825Z,44.98
2022-07-29T07:48:08.183Z,44.33
2022-07-29T07:50:55.570Z,44.41
2022-07-29T07:53:43.412Z,44.48
2022-07-29T07:56:35.154Z,44.09
2022-07-29T07:59:20.159Z,44.33
2022-07-29T08:02:08.350Z,43.34
2022-07-29T08:04:55.576Z,43.11
2022-07-29T08:07:43.384Z,43.24
2022-07-29T08:10:50.054Z,43.03
2022-07-29T08:13:38.865Z,42.78
2022-07-29T08:16:26.369Z,42.50
2022-07-29T08:19:13.984Z,42.78
2022-07-29T08:22:01.447Z,43.40
2022-07-29T08:24:50.199Z,42.63
2022-07-29T08:27:45.003Z,42.70
2022-07-29T08:30:26.958Z,41.24
2022-07-29T08:33:14.006Z,42.37
2022-07-29T08:36:01.583Z,43.02
2022-07-29T08:38:50.713Z,42.34
2022-07-29T08:41:38.576Z,40.89
2022-07-29T08:44:31.063Z,41.33
2022-07-29T08:47:18.952Z,41.81
2022-07-29T08:50:06.719Z,41.33
2022-07-29T08:52:59.385Z,41.40
2022-07-29T08:55:52.223Z,40.74
2022-07-29T08:58:39.864Z,40.31
2022-07-29T09:01:35.972Z,39.98
2022-07-29T09:04:22.698Z,39.48
2022-07-29T09:07:11.391Z,39.64
2022-07-29T09:09:59.105Z,40.14
2022-07-29T09:12:47.160Z,40.07
2022-07-29T09:15:34.847Z,39.61
2022-07-29T09:18:39.577Z,39.48
2022-07-29T09:21:45.727Z,39.73
2022-07-29T09:24:41.912Z,38.72
2022-07-29T09:27:30.115Z,38.46
2022-07-29T09:30:28.855Z,38.68
2022-07-29T09:33:06.769Z,38.25
2022-07-29T09:36:05.879Z,37.34
2022-07-29T09:39:04.241Z,38.95
2022-07-29T09:41:56.265Z,38.83
2022-07-29T09:44:49.648Z,38.26
2022-07-29T09:50:39.633Z,37.72
2022-07-29T09:53:38.491Z,38.50
2022-07-29T09:56:42.899Z,37.94
2022-07-29T09:59:30.092Z,38.49
2022-07-29T10:02:23.657Z,38.35
2022-07-29T10:05:10.769Z,38.12
2022-07-29T10:07:58.103Z,38.57
2022-07-29T10:10:45.657Z,38.04
2022-07-29T10:13:33.016Z,38.26
2022-07-29T10:16:20.859Z,38.43
2022-07-29T10:19:08.695Z,38.11
2022-07-29T10:21:58.142Z,36.76
2022-07-29T10:24:46.096Z,37.56
2022-07-29T10:27:33.544Z,38.18
2022-07-29T10:30:22.480Z,37.42
2022-07-29T10:33:13.567Z,36.35
2022-07-29T10:36:14.321Z,36.97
2022-07-29T10:39:03.434Z,36.42
2022-07-29T10:42:33.923Z,36.96
2022-07-29T10:45:10.145Z,35.46
2022-07-29T10:48:07.918Z,36.02
2022-07-29T10:51:07.177Z,35.85
2022-07-29T10:53:55.313Z,35.97
2022-07-29T10:56:43.097Z,35.81
2022-07-29T10:59:36.371Z,35.34
2022-07-29T11:02:45.074Z,35.80
2022-07-29T11:05:40.791Z,35.22
2022-07-29T11:08:26.421Z,34.33
2022-07-29T11:11:31.456Z,34.51
2022-07-29T11:14:26.571Z,35.52
2022-07-29T11:17:10.258Z,34.49
2022-07-29T11:20:33.959Z,34.62
2022-07-29T11:26:18.872Z,34.72
2022-07-29T11:29:09.394Z,34.70
2022-07-29T11:32:01.695Z,34.99
2022-07-29T11:34:50.256Z,35.46
2022-07-29T11:37:45.977Z,35.70
2022-07-29T11:40:26.552Z,35.58
2022-07-29T11:43:15.457Z,35.50
2022-07-29T11:46:02.816Z,35.56
2022-07-29T11:48:52.020Z,35.40
2022-07-29T11:51:48.729Z,34.10
2022-07-29T11:54:32.475Z,34.40
2022-07-29T11:57:22.953Z,34.35
2022-07-29T12:00:14.662Z,33.21
2022-07-29T12:03:05.510Z,32.57
2022-07-29T12:05:53.096Z,32.00
2022-07-29T12:08:43.987Z,32.00
2022-07-29T12:11:31.888Z,32.07
2022-07-29T12:14:35.487Z,33.89
2022-07-29T12:17:36.856Z,33.89
2022-07-29T12:20:29.657Z,34.46
2022-07-29T12:23:19.001Z,35.04
2022-07-29T12:26:10.755Z,35.88
2022-07-29T12:28:57.490Z,34.86
2022-07-29T12:31:47.668Z,34.86
2022-07-29T12:34:36.872Z,34.42
2022-07-29T12:37:41.335Z,33.39
2022-07-29T12:40:16.064Z,33.39
2022-07-29T12:43:11.624Z,33.61
2022-07-29T12:45:59.729Z,33.47
2022-07-29T12:48:47.599Z,33.28
2022-07-29T12:54:19.959Z,32.82
2022-07-29T12:57:07.548Z,33.58
2022-07-29T13:00:12.029Z,33.34
2022-07-29T13:03:00.835Z,34.50
2022-07-29T13:05:49.582Z,34.45
2022-07-29T13:08:37.149Z,34.22
2022-07-29T13:11:47.940Z,34.49
2022-07-29T13:14:45.696Z,34.33
2022-07-29T13:17:34.860Z,35.45
2022-07-29T13:20:25.497Z,36.53
2022-07-29T13:23:12.578Z,37.42
2022-07-29T13:26:03.010Z,37.30
2022-07-29T13:28:50.874Z,36.93
2022-07-29T13:31:38.401Z,35.42
2022-07-29T13:34:25.666Z,34.52
2022-07-29T13:37:13.474Z,32.38
2022-07-29T13:40:03.152Z,29.81
2022-07-29T13:42:50.631Z,29.49
2022-07-29T13:45:38.452Z,30.39
2022-07-29T13:48:25.882Z,31.99
2022-07-29T13:51:13.297Z,33.19
2022-07-29T13:54:01.409Z,34.19
2022-07-29T13:56:50.225Z,36.48
2022-07-29T13:59:37.704Z,36.48
2022-07-29T14:02:26.376Z,37.06
2022-07-29T14:05:14.291Z,37.79
2022-07-29T14:08:02.169Z,38.24
2022-07-29T14:10:49.737Z,38.82
2022-07-29T14:13:38.778Z,38.71
2022-07-29T14:16:27.430Z,38.08
2022-07-29T14:19:14.993Z,36.85
2022-07-29T14:22:03.019Z,36.69
2022-07-29T14:24:50.905Z,35.67
2022-07-29T14:27:39.354Z,33.64
2022-07-29T14:30:28.473Z,32.83
2022-07-29T14:33:16.208Z,30.55
2022-07-29T14:36:03.848Z,28.67
2022-07-29T14:38:50.976Z,26.62
2022-07-29T14:41:39.257Z,25.86
2022-07-29T14:44:28.370Z,26.76
2022-07-29T14:47:16.058Z,27.58
2022-07-29T14:50:03.910Z,26.76
2022-07-29T14:52:51.618Z,25.50
2022-07-29T14:55:38.757Z,24.68
2022-07-29T14:58:26.057Z,24.22
2022-07-29T15:01:13.965Z,23.23
2022-07-29T15:04:01.400Z,22.64
2022-07-29T15:06:48.689Z,22.74
2022-07-29T15:09:36.279Z,22.81
2022-07-29T15:12:25.097Z,23.22
2022-07-29T15:15:12.313Z,23.01
2022-07-29T15:18:00.153Z,22.62
2022-07-29T15:20:47.849Z,22.44
2022-07-29T15:23:39.849Z,22.21
2022-07-29T15:26:27.379Z,22.37
2022-07-29T15:29:15.425Z,22.59
2022-07-29T15:32:03.633Z,22.34
2022-07-29T15:34:51.106Z,22.02
2022-07-29T15:37:48.682Z,21.74
2022-07-29T15:40:28.583Z,21.86
2022-07-29T15:43:16.312Z,22.56
2022-07-29T15:46:21.793Z,22.91
2022-07-29T15:49:09.750Z,22.82
2022-07-29T15:51:59.946Z,22.72
2022-07-29T15:54:46.458Z,22.43
2022-07-29T15:57:33.832Z,22.60
2022-07-29T16:00:22.984Z,22.62
2022-07-29T16:03:09.879Z,22.55
2022-07-29T16:05:57.394Z,22.77
2022-07-29T16:08:44.945Z,23.24
2022-07-29T16:11:32.640Z,23.29
2022-07-29T16:14:20.748Z,23.52
2022-07-29T16:17:08.762Z,25.19
2022-07-29T16:19:58.360Z,27.04
2022-07-29T16:22:46.120Z,27.74
2022-07-29T16:25:58.461Z,29.16
2022-07-29T16:28:23.127Z,30.45
2022-07-29T16:31:11.043Z,31.85
2022-07-29T16:34:00.193Z,32.74
2022-07-29T16:36:48.012Z,33.90
2022-07-29T16:39:35.853Z,34.75
2022-07-29T16:42:44.407Z,35.21
2022-07-29T16:45:12.654Z,35.72
2022-07-29T16:48:01.240Z,35.72
2022-07-29T16:50:48.913Z,36.48
2022-07-29T16:53:36.625Z,37.06
2022-07-29T16:56:25.080Z,37.41
2022-07-29T16:59:12.625Z,38.15
2022-07-29T17:02:01.690Z,39.07
2022-07-29T17:04:49.873Z,39.57
2022-07-29T17:07:37.521Z,40.25
2022-07-29T17:10:24.757Z,40.72
2022-07-29T17:13:14.131Z,41.43
2022-07-29T17:16:01.558Z,41.87
2022-07-29T17:18:49.144Z,42.18
2022-07-29T17:21:36.644Z,42.59
2022-07-29T17:24:25.513Z,42.89
2022-07-29T17:27:13.241Z,43.23
2022-07-29T17:30:00.578Z,43.51
2022-07-29T17:32:47.946Z,44.08
2022-07-29T17:35:54.377Z,44.16
2022-07-29T17:38:41.770Z,44.33
2022-07-29T17:41:29.315Z,44.67
2022-07-29T17:44:17.041Z,45.18
2022-07-29T17:47:05.154Z,45.40
2022-07-29T17:49:53.195Z,45.73
2022-07-29T17:52:40.945Z,46.15
2022-07-29T17:55:28.115Z,46.36
2022-07-29T17:58:15.821Z,46.56
2022-07-29T18:01:03.324Z,46.46
2022-07-29T18:03:51.193Z,46.59
2022-07-29T18:06:38.450Z,46.77
2022-07-29T18:09:26.003Z,47.02
2022-07-29T18:12:13.626Z,47.47
2022-07-29T18:15:00.644Z,47.58
2022-07-29T18:17:57.025Z,47.26
2022-07-29T18:20:37.506Z,47.21
2022-07-29T18:23:25.339Z,47.17
2022-07-29T18:26:12.738Z,47.53
2022-07-29T18:29:00.298Z,47.25
2022-07-29T18:31:47.483Z,47.26
2022-07-29T18:34:35.009Z,47.21
2022-07-29T18:38:02.200Z,47.25
2022-07-29T18:40:12.685Z,47.44
2022-07-29T18:42:59.945Z,47.44
2022-07-29T18:45:49.209Z,47.85
2022-07-29T18:48:38.431Z,48.17
2022-07-29T18:51:26.242Z,48.19
2022-07-29T18:54:14.151Z,48.20
2022-07-29T18:57:02.082Z,48.43
2022-07-29T18:59:53.954Z,48.43
2022-07-29T19:02:41.352Z,48.64
2022-07-29T19:05:30.221Z,48.87
2022-07-29T19:08:17.921Z,49.22
2022-07-29T19:11:05.873Z,49.33
2022-07-29T19:13:53.386Z,49.38
2022-07-29T19:16:41.362Z,49.83
2022-07-29T19:19:29.081Z,50.03
2022-07-29T19:22:16.781Z,50.41
2022-07-29T19:25:04.681Z,50.49
2022-07-29T19:27:51.929Z,50.40
2022-07-29T19:30:40.472Z,50.61
2022-07-29T19:33:27.810Z,51.10
2022-07-29T19:36:15.721Z,51.10
2022-07-29T19:39:03.656Z,51.18
2022-07-29T19:41:59.193Z,51.12
2022-07-29T19:44:44.944Z,51.02
2022-07-29T19:47:32.352Z,51.30
2022-07-29T19:50:20.152Z,51.16
2022-07-29T19:53:07.809Z,51.16
2022-07-29T19:55:55.249Z,51.25
2022-07-29T19:58:44.213Z,51.13
2022-07-29T20:01:33.619Z,51.14
2022-07-29T20:04:20.992Z,51.40
2022-07-29T20:07:12.608Z,51.47
2022-07-29T20:09:59.888Z,51.69
2022-07-29T20:12:47.883Z,51.73
2022-07-29T20:15:37.493Z,51.78
2022-07-29T20:18:25.721Z,51.91
2022-07-29T20:21:14.170Z,52.17
2022-07-29T20:24:02.978Z,52.45
2022-07-29T20:26:51.841Z,53.06
2022-07-29T20:29:40.057Z,53.34
2022-07-29T20:32:27.857Z,53.98
2022-07-29T20:35:15.690Z,55.08
2022-07-29T20:38:03.504Z,56.14
2022-07-29T20:40:51.104Z,56.86
2022-07-29T20:43:39.290Z,57.91
2022-07-29T20:46:26.900Z,58.19
2022-07-29T20:49:14.873Z,58.35
2022-07-29T20:52:02.178Z,58.20
2022-07-29T20:54:49.521Z,58.04
2022-07-29T20:57:39.034Z,57.48
2022-07-29T21:00:26.528Z,57.43
2022-07-29T21:03:13.738Z,57.85
2022-07-29T21:06:01.800Z,57.60
2022-07-29T21:08:49.611Z,57.51
2022-07-29T21:11:43.484Z,57.51
2022-07-29T21:14:30.323Z,57.47
2022-07-29T21:17:21.213Z,57.56
2022-07-29T21:20:11.498Z,57.78
2022-07-29T21:22:59.210Z,58.40
2022-07-29T21:25:48.197Z,58.68
2022-07-29T21:28:41.601Z,59.12
2022-07-29T21:31:29.369Z,58.79
2022-07-29T21:34:16.995Z,58.18
2022-07-29T21:37:04.915Z,58.08
2022-07-29T21:39:53.658Z,58.38
2022-07-29T21:42:40.925Z,58.44
2022-07-29T21:45:28.338Z,58.58
2022-07-29T21:48:16.073Z,58.52
2022-07-29T21:51:03.411Z,58.66
2022-07-29T21:53:50.692Z,58.76
2022-07-29T21:56:39.577Z,59.03
2022-07-29T21:59:26.888Z,59.06
2022-07-29T22:02:14.306Z,59.14
2022-07-29T22:05:02.116Z,59.86
2022-07-29T22:07:54.585Z,60.36
2022-07-29T22:10:38.834Z,59.85
2022-07-29T22:13:26.689Z,60.34
2022-07-29T22:16:15.172Z,60.87
2022-07-29T22:19:03.948Z,60.83
2022-07-29T22:21:51.586Z,61.05
2022-07-29T22:24:39.282Z,61.14
2022-07-29T22:27:26.449Z,61.30
2022-07-29T22:30:14.428Z,61.46
2022-07-29T22:33:01.821Z,61.61
2022-07-29T22:35:49.278Z,61.90
2022-07-29T22:38:37.005Z,62.09
2022-07-29T22:41:24.683Z,62.29
2022-07-29T22:44:11.835Z,62.47
2022-07-29T22:47:00.078Z,62.46
2022-07-29T22:49:48.153Z,62.57
2022-07-29T22:52:35.393Z,62.70
2022-07-29T22:55:22.856Z,62.79
2022-07-29T22:58:10.322Z,62.97
2022-07-29T23:00:58.086Z,63.10
2022-07-29T23:03:50.863Z,63.05
2022-07-29T23:06:35.323Z,63.23
2022-07-29T23:09:23.155Z,63.74
2022-07-29T23:12:10.731Z,64.01
2022-07-29T23:14:57.978Z,64.13
2022-07-29T23:17:45.600Z,64.35
2022-07-29T23:20:33.185Z,64.48
2022-07-29T23:23:20.584Z,64.67
2022-07-29T23:26:07.808Z,65.16
2022-07-29T23:28:54.909Z,65.31
2022-07-29T23:31:48.060Z,65.48
2022-07-29T23:34:31.443Z,65.64
2022-07-29T23:37:18.888Z,65.90
2022-07-29T23:40:10.827Z,66.26
2022-07-29T23:42:56.344Z,66.62
2022-07-29T23:45:45.193Z,67.01
2022-07-29T23:48:32.784Z,67.91
2022-07-29T23:51:20.452Z,68.00
2022-07-29T23:54:08.346Z,68.35
2022-07-29T23:56:57.231Z,68.43
2022-07-29T23:59:45.057Z,68.50
